モントリオール/トルドー の空港の天気 - METARとTAF

モントリオール・ピエール・エリオット・トルドー国際空港 ( CYUL / YUL ) - カナダ ケベック州モントリオール
飛行場実況気象(Metar)
観測時間11/30 10:39 EST (11/30 15:39 UTC)
風向・風速南東 11m/s 瞬間風速14m/s
視程10km以上
天気現象弱い雨
全天の8割程度の雲 雲底高度 1370m
全天を覆う雲 雲底高度 1980m
気温4℃
湿度87%
気圧1006.2hPa
METARCYUL 301539Z 14022G27KT 8SM -RA BKN045 OVC065 04/02 A2970 RMK SC6SC2 PRESFR SLP062
過去の天気等 Google飛行場航空写真 Wunderground天気予報

過去48時間のMETAR

飛行場予報(TAF)
発表時間: 11/30 09:40 EST (11/30 14:40 UTC)
予報対象時間: 30日10時 EST ~ 1日7時 EST
風向・風速南東 10m/s 瞬間風速 18m/s
視程10km以上
天気現象弱い雨
全天を覆う雲 雲底高度 760m
30日10時 EST ~ 30日13時 EST に一時的に
視程8050m
天気現象弱い雨
全天を覆う雲 雲底高度 460m
30日13時 EST から
風向・風速南南東 10m/s 瞬間風速 15m/s
視程6440m
天気現象雨 もや
全天を覆う雲 雲底高度 370m
30日13時 EST ~ 30日19時 EST に一時的に
視程10km以上
天気現象弱い雨
全天を覆う雲 雲底高度 760m
30日16時 EST ~ 30日18時 EST に徐々に
風向・風速西南西 11m/s 瞬間風速 21m/s
30日19時 EST から
風向・風速西南西 13m/s 瞬間風速 21m/s
視程10km以上
天気現象弱いしゅう雨
全天の8割程度の雲 雲底高度 610m
全天を覆う雲 雲底高度 1830m
30日22時 EST から
風向・風速西南西 10m/s 瞬間風速 18m/s
視程10km以上
全天の8割程度の雲 雲底高度 910m
TAF CYUL 301440Z 3015/0112 14020G35KT P6SM -RA OVC025
TEMPO 3015/3018 5SM -RA OVC015
FM301800 16020G30KT 4SM RA BR OVC012
TEMPO 3018/3024 P6SM -RA OVC025
BECMG 3021/3023 24022G40KT
FM010000 24025G40KT P6SM -SHRA BKN020 OVC060
FM010300 24020G35KT P6SM BKN030 RMK NXT FCST BY 301800Z